Archival Weather

Habib Bourguiba Intl

Habib Bourguiba Intl, Tunisia (DTMB)

Report from: Sunday, October 1, 2023 6:00 PM CET
Current time: Saturday, February 24, 2024 5:15 PM CET

Current weather – Weather history – Daily summaries
Weather forecast

Temperature25.0°C (77.0°F)
Dew point19.0°C (66.2°F)
Winds 9 kts (4.6 m/s, 10.4 mph) East (100°)
Visibility6.2 mi. (10 km)
Clouds Few clouds 3,000 ft. (914 m)
Altimeter30.15 in.Hg (1021 mB)
Relative humidity69 %
Density altitude1,197 ft. (365 m)
Flight conditions Visual Meteorological Conditions
Raw dataDTMB 011700Z 10009KT 9999 FEW030 25/19 Q1021
An error has occurred. This application may no longer respond until reloaded. Reload 🗙